Time;durP1;ratioP1;P1;durP2;ratioP2;P2;SDS_P1;SDS_P2;PMS_P1;PMS_P2;Temp;Humidity;BMP_temperature;BMP_pressure;BME280_temperature;BME280_humidity;BME280_pressure;Samples;Min_cycle;Max_cycle;Signal;HPM_P1;HPM_P2
2022/07/26 00:00:42;;;;;;;11.35;8.98;;;;;;;20.86;81.79;94805.03;5024868;28;20124;-72
2022/07/26 00:03:09;;;;;;;13.60;10.10;;;;;;;20.89;81.88;94801.78;5022020;28;20107;-72
2022/07/26 00:05:37;;;;;;;13.70;9.13;;;;;;;20.85;82.03;94796.31;5022560;28;20049;-73
2022/07/26 00:08:12;;;;;;;11.38;8.98;;;;;;;20.95;81.93;94808.53;5020281;28;20072;-72
2022/07/26 00:10:42;;;;;;;13.05;9.82;;;;;;;20.91;82.42;94804.91;5022710;28;20053;-72
2022/07/26 00:13:09;;;;;;;13.30;9.55;;;;;;;20.84;82.58;94801.91;5020897;28;20038;-72
2022/07/26 00:15:37;;;;;;;11.90;9.80;;;;;;;20.81;82.36;94795.31;5022306;28;20438;-72
2022/07/26 00:18:05;;;;;;;14.30;9.48;;;;;;;20.84;82.82;94799.25;5021973;28;20034;-72
2022/07/26 00:20:37;;;;;;;12.88;9.77;;;;;;;20.83;82.77;94802.97;5003730;28;20045;-72
2022/07/26 00:23:04;;;;;;;13.52;9.32;;;;;;;20.78;83.73;94807.28;5021790;28;20260;-72
2022/07/26 00:25:32;;;;;;;11.43;9.30;;;;;;;20.75;83.73;94802.56;5026581;28;20040;-72
2022/07/26 00:27:59;;;;;;;11.55;8.52;;;;;;;20.75;83.50;94805.22;5028612;28;20033;-73
2022/07/26 00:30:27;;;;;;;11.20;9.38;;;;;;;20.71;84.22;94796.31;5011144;28;20069;-73
2022/07/26 00:32:54;;;;;;;12.20;9.23;;;;;;;20.68;84.49;94796.91;5015210;28;20049;-72
2022/07/26 00:35:21;;;;;;;13.10;9.73;;;;;;;20.70;84.75;94804.53;5038872;28;20041;-72
2022/07/26 00:37:48;;;;;;;12.00;9.15;;;;;;;20.62;85.31;94798.09;5036746;28;20040;-72
2022/07/26 00:40:16;;;;;;;10.00;8.63;;;;;;;20.59;84.97;94794.13;5034285;28;20045;-72
2022/07/26 00:42:43;;;;;;;12.20;9.07;;;;;;;20.60;85.46;94794.94;5034050;28;20049;-73
2022/07/26 00:45:11;;;;;;;14.30;9.73;;;;;;;20.59;85.51;94793.34;5001434;28;20132;-73
2022/07/26 00:47:38;;;;;;;12.85;9.32;;;;;;;20.61;85.86;94791.22;5031920;28;20613;-72
2022/07/26 00:50:09;;;;;;;10.80;8.85;;;;;;;20.59;85.55;94782.75;5034622;28;20045;-72
2022/07/26 00:52:36;;;;;;;12.10;9.82;;;;;;;20.44;85.51;94760.81;5016505;28;20048;-72
2022/07/26 00:55:05;;;;;;;17.30;9.23;;;;;;;20.57;85.64;94777.00;5034241;28;20064;-72
2022/07/26 00:57:34;;;;;;;12.35;9.82;;;;;;;20.48;85.88;94776.88;5035040;28;20037;-72
2022/07/26 01:00:07;;;;;;;15.73;9.70;;;;;;;20.36;86.32;94769.44;5013375;28;20055;-72
2022/07/26 01:02:34;;;;;;;13.52;9.82;;;;;;;20.36;86.97;94776.59;5014129;28;20061;-72
2022/07/26 01:05:01;;;;;;;11.90;8.85;;;;;;;20.36;86.57;94785.31;5007539;28;20527;-72
2022/07/26 01:07:28;;;;;;;11.40;9.85;;;;;;;20.41;86.67;94785.22;4993679;28;20048;-72
2022/07/26 01:09:56;;;;;;;10.77;9.57;;;;;;;20.36;86.73;94782.66;4994883;28;20043;-72
2022/07/26 01:12:23;;;;;;;10.25;8.80;;;;;;;20.34;87.35;94787.47;4994355;28;20042;-72
2022/07/26 01:14:50;;;;;;;10.77;9.23;;;;;;;20.32;87.11;94784.31;4993857;28;20089;-72
2022/07/26 01:17:17;;;;;;;12.40;9.20;;;;;;;20.27;87.40;94787.06;4993895;28;20507;-72
2022/07/26 01:19:43;;;;;;;11.15;9.90;;;;;;;20.18;87.81;94780.88;4987390;28;20046;-72
2022/07/26 01:22:11;;;;;;;14.13;9.30;;;;;;;20.21;87.84;94782.97;4984979;28;20042;-73
2022/07/26 01:24:41;;;;;;;15.60;9.18;;;;;;;20.21;88.29;94788.25;4984610;28;20050;-72
2022/07/26 01:27:08;;;;;;;13.82;9.45;;;;;;;20.23;88.21;94786.09;4987636;28;20049;-72
2022/07/26 01:29:34;;;;;;;16.60;9.95;;;;;;;20.19;88.30;94780.59;4991568;28;20614;-72
2022/07/26 01:32:03;;;;;;;12.23;9.30;;;;;;;20.19;88.41;94785.13;4990060;28;20050;-72
2022/07/26 01:34:31;;;;;;;12.38;9.70;;;;;;;20.14;88.09;94787.84;4991069;28;20100;-73
2022/07/26 01:36:59;;;;;;;11.05;9.20;;;;;;;20.15;88.36;94781.47;4995783;28;20039;-72
2022/07/26 01:39:26;;;;;;;13.30;8.85;;;;;;;20.12;88.52;94779.44;4990611;28;20042;-72
2022/07/26 01:41:53;;;;;;;13.27;9.05;;;;;;;20.00;88.36;94767.44;4989363;28;20046;-72
2022/07/26 01:44:21;;;;;;;10.93;9.00;;;;;;;20.01;88.86;94774.31;4988960;28;20057;-73
2022/07/26 01:46:49;;;;;;;14.32;10.05;;;;;;;19.93;88.86;94767.03;4990650;28;20124;-73
2022/07/26 01:49:16;;;;;;;13.13;9.10;;;;;;;19.96;89.02;94771.75;4989718;28;20413;-73
2022/07/26 01:51:43;;;;;;;13.68;9.90;;;;;;;19.92;89.62;94770.78;4988055;28;20185;-73
2022/07/26 01:54:10;;;;;;;10.25;9.15;;;;;;;19.90;89.83;94777.41;4987820;28;20056;-73
2022/07/26 01:56:38;;;;;;;12.07;10.18;;;;;;;19.87;89.91;94789.38;4989461;28;20494;-72
2022/07/26 01:59:05;;;;;;;15.38;10.13;;;;;;;19.81;89.92;94790.53;4984247;28;20065;-73
2022/07/26 02:01:32;;;;;;;12.80;10.52;;;;;;;19.77;90.12;94789.53;4985351;28;20046;-73
2022/07/26 02:04:05;;;;;;;14.03;10.03;;;;;;;19.71;90.66;94790.66;4999493;28;20089;-72
2022/07/26 02:06:33;;;;;;;13.60;10.68;;;;;;;19.66;90.95;94796.81;5006507;28;20184;-72
2022/07/26 02:09:00;;;;;;;14.10;10.65;;;;;;;19.60;91.14;94790.81;5024388;28;20038;-72
2022/07/26 02:11:27;;;;;;;14.10;9.80;;;;;;;19.57;91.37;94796.69;5024138;28;20037;-72
2022/07/26 02:13:54;;;;;;;12.48;10.02;;;;;;;19.56;91.47;94794.34;5024599;28;20598;-71
2022/07/26 02:16:21;;;;;;;14.90;11.18;;;;;;;19.43;92.02;94785.28;5024251;28;20041;-72
2022/07/26 02:18:48;;;;;;;16.95;10.52;;;;;;;19.49;92.16;94799.97;5006575;28;20134;-73
2022/07/26 02:21:15;;;;;;;15.05;10.63;;;;;;;19.46;92.42;94797.91;4990216;28;20084;-72
2022/07/26 02:23:42;;;;;;;13.20;9.85;;;;;;;19.45;92.27;94794.50;5012753;28;20514;-72
2022/07/26 02:26:09;;;;;;;13.07;9.32;;;;;;;19.39;92.68;94802.75;5033770;28;20037;-72
2022/07/26 02:28:36;;;;;;;13.30;9.30;;;;;;;19.34;93.11;94792.28;5034896;28;20542;-71
2022/07/26 02:31:03;;;;;;;12.68;10.32;;;;;;;19.40;93.25;94791.16;5034730;28;20038;-73
2022/07/26 02:33:30;;;;;;;12.52;9.57;;;;;;;19.33;93.60;94793.38;5033044;28;20052;-73
2022/07/26 02:35:57;;;;;;;16.70;10.02;;;;;;;19.32;94.49;94794.41;5031147;28;20049;-72
2022/07/26 02:38:24;;;;;;;12.20;9.73;;;;;;;19.26;94.80;94791.84;5033191;28;20052;-73
2022/07/26 02:40:51;;;;;;;13.98;9.95;;;;;;;19.25;94.61;94790.31;5014583;28;20049;-73
2022/07/26 02:43:18;;;;;;;12.77;10.40;;;;;;;19.26;95.02;94791.84;5013736;28;20072;-72
2022/07/26 02:45:45;;;;;;;20.63;11.38;;;;;;;19.28;94.84;94797.66;5033680;28;20068;-72
2022/07/26 02:48:26;;;;;;;15.98;10.00;;;;;;;19.31;94.62;94800.78;5016714;28;20041;-73
2022/07/26 02:50:53;;;;;;;13.13;10.20;;;;;;;19.26;94.35;94791.06;5008563;28;20045;-73
2022/07/26 02:53:20;;;;;;;15.48;10.05;;;;;;;19.27;94.36;94793.44;5024139;28;20569;-73
2022/07/26 02:55:47;;;;;;;18.05;10.38;;;;;;;19.23;94.72;94792.44;5023576;28;20136;-73
2022/07/26 02:58:14;;;;;;;16.23;10.95;;;;;;;19.27;95.09;94798.72;5023067;28;20045;-73
2022/07/26 03:00:41;;;;;;;15.50;9.80;;;;;;;19.27;94.99;94804.00;5023219;28;20048;-73
2022/07/26 03:03:12;;;;;;;13.57;10.93;;;;;;;19.29;94.90;94804.50;5005325;28;20063;-73
2022/07/26 03:05:40;;;;;;;15.98;9.82;;;;;;;19.24;95.23;94799.28;5020728;28;20041;-73
2022/07/26 03:08:07;;;;;;;15.20;11.63;;;;;;;19.22;95.25;94806.69;5004822;28;20033;-73
2022/07/26 03:10:34;;;;;;;13.43;10.23;;;;;;;19.17;95.66;94804.13;5004442;28;20061;-73
2022/07/26 03:13:01;;;;;;;12.75;10.18;;;;;;;19.14;96.46;94799.44;5004796;28;20037;-73
2022/07/26 03:15:28;;;;;;;15.57;10.57;;;;;;;19.02;96.92;94797.22;5020770;28;20048;-72
2022/07/26 03:17:55;;;;;;;12.50;10.20;;;;;;;19.10;97.13;94806.34;5021942;28;20045;-72
2022/07/26 03:20:22;;;;;;;18.25;10.55;;;;;;;19.01;97.79;94800.13;5024964;28;20052;-72
2022/07/26 03:22:49;;;;;;;17.55;10.98;;;;;;;19.05;97.70;94816.97;5024881;28;20058;-73
2022/07/26 03:25:16;;;;;;;13.60;10.15;;;;;;;19.09;97.64;94820.63;4993320;28;20441;-73
2022/07/26 03:27:43;;;;;;;17.50;10.13;;;;;;;19.12;96.55;94827.94;5029370;28;20053;-73
2022/07/26 03:30:10;;;;;;;17.02;10.07;;;;;;;19.14;95.83;94820.56;5030474;28;20640;-73
2022/07/26 03:32:38;;;;;;;14.95;10.95;;;;;;;19.10;96.67;94830.91;5025979;28;20053;-73
2022/07/26 03:35:05;;;;;;;13.88;10.50;;;;;;;18.92;96.82;94805.25;5025750;28;20033;-72
2022/07/26 03:37:33;;;;;;;14.40;11.00;;;;;;;19.08;96.42;94832.25;5013112;28;20132;-72
2022/07/26 03:40:15;;;;;;;23.95;12.98;;;;;;;19.00;96.58;94823.09;5024805;28;20037;-73
2022/07/26 03:42:43;;;;;;;20.52;12.38;;;;;;;19.05;96.88;94827.53;5001490;28;20053;-73
2022/07/26 03:45:11;;;;;;;19.35;12.27;;;;;;;19.08;96.85;94832.25;5020018;28;20542;-73
2022/07/26 03:47:38;;;;;;;15.05;11.88;;;;;;;19.08;96.37;94830.38;5003391;28;20466;-73
2022/07/26 03:50:06;;;;;;;17.83;11.93;;;;;;;19.05;96.35;94824.88;5003694;28;20041;-74
2022/07/26 03:52:33;;;;;;;22.27;12.82;;;;;;;18.94;97.27;94824.22;5003249;28;20044;-73
2022/07/26 03:56:27;;;;;;;17.50;12.85;;;;;;;18.91;97.74;94817.66;5021819;28;20092;-72
2022/07/26 03:57:47;;;;;;;15.50;12.15;;;;;;;18.93;97.80;94819.25;5019333;28;20064;-73
2022/07/26 04:00:14;;;;;;;20.42;12.30;;;;;;;18.96;97.82;94818.66;5004103;28;20049;-73
2022/07/26 04:02:41;;;;;;;26.48;12.38;;;;;;;18.89;97.47;94796.06;5003275;28;20057;-73
2022/07/26 04:05:09;;;;;;;18.42;12.88;;;;;;;19.03;97.81;94808.53;5002948;28;20052;-74
2022/07/26 04:07:45;;;;;;;22.25;13.50;;;;;;;19.09;98.13;94802.91;5020981;28;20495;-73
2022/07/26 04:10:20;;;;;;;22.85;12.45;;;;;;;19.16;98.11;94813.13;5020627;28;20045;-73
2022/07/26 04:12:48;;;;;;;15.32;12.07;;;;;;;19.19;98.31;94812.53;4990316;28;20049;-73
2022/07/26 04:15:17;;;;;;;18.98;13.85;;;;;;;19.37;97.88;94812.84;5005480;28;20156;-73
2022/07/26 04:17:47;;;;;;;18.50;13.02;;;;;;;19.42;97.12;94812.75;5024371;28;20053;-73
2022/07/26 04:20:15;;;;;;;21.52;13.88;;;;;;;19.38;97.92;94814.41;5005587;28;20509;-73
2022/07/26 04:22:42;;;;;;;23.15;14.88;;;;;;;19.28;99.65;94810.84;5007586;28;20132;-73
2022/07/26 04:25:09;;;;;;;18.35;15.00;;;;;;;19.16;100.00;94807.06;5006261;28;20057;-73
2022/07/26 04:27:36;;;;;;;22.33;16.20;;;;;;;19.05;100.00;94811.69;4993359;28;20048;-74
2022/07/26 04:30:07;;;;;;;23.63;15.07;;;;;;;19.01;100.00;94806.19;5009322;28;20520;-73
2022/07/26 04:32:40;;;;;;;21.73;14.35;;;;;;;19.05;100.00;94798.47;5021423;28;20136;-73
2022/07/26 04:35:08;;;;;;;21.13;15.30;;;;;;;19.15;100.00;94803.63;5007395;28;20045;-73
2022/07/26 04:37:43;;;;;;;21.35;16.17;;;;;;;19.26;100.00;94797.13;5010257;28;20096;-73
2022/07/26 04:40:15;;;;;;;22.75;15.80;;;;;;;19.49;99.55;94810.53;5020551;28;20045;-73
2022/07/26 04:42:42;;;;;;;22.95;14.50;;;;;;;19.65;98.46;94798.66;5022664;28;20593;-73
2022/07/26 04:45:11;;;;;;;18.33;13.88;;;;;;;19.82;98.08;94802.66;5021181;28;20123;-74
2022/07/26 04:47:43;;;;;;;22.77;14.27;;;;;;;19.97;97.86;94805.06;5008791;28;20149;-76
2022/07/26 04:50:11;;;;;;;17.83;13.60;;;;;;;20.13;97.23;94794.19;5010879;28;20045;-75
2022/07/26 04:52:39;;;;;;;18.55;12.82;;;;;;;20.36;95.98;94789.81;5006475;28;20508;-74
2022/07/26 04:55:08;;;;;;;15.02;12.38;;;;;;;20.47;96.04;94790.41;5021590;28;20052;-67
2022/07/26 04:57:35;;;;;;;14.80;12.00;;;;;;;20.62;94.82;94792.78;5027649;28;20041;-67
2022/07/26 05:00:05;;;;;;;19.85;12.60;;;;;;;20.88;94.43;94805.50;5028923;28;20045;-67
2022/07/26 05:02:52;;;;;;;15.35;12.75;;;;;;;21.07;93.65;94800.88;5027734;28;20044;-65
2022/07/26 05:05:21;;;;;;;20.30;12.43;;;;;;;21.25;92.80;94804.44;5030496;28;20115;-64
2022/07/26 05:07:50;;;;;;;15.48;11.60;;;;;;;21.45;92.02;94797.94;5030465;28;20052;-64
2022/07/26 05:10:19;;;;;;;15.23;11.88;;;;;;;21.62;90.34;94799.16;5010038;28;20067;-65
2022/07/26 05:12:47;;;;;;;16.55;11.45;;;;;;;21.77;89.53;94804.09;5028848;28;20052;-65
2022/07/26 05:15:14;;;;;;;15.15;12.77;;;;;;;21.95;88.15;94805.75;5026923;28;20044;-65
2022/07/26 05:17:42;;;;;;;18.05;12.57;;;;;;;22.07;87.03;94791.16;5010568;28;20104;-65
2022/07/26 05:20:12;;;;;;;16.15;12.27;;;;;;;22.23;86.09;94789.66;5029441;28;20440;-64
2022/07/26 05:22:39;;;;;;;14.30;11.10;;;;;;;22.33;85.82;94786.00;5024686;28;20060;-65
2022/07/26 05:25:07;;;;;;;18.77;11.30;;;;;;;22.50;84.82;94793.22;5032667;28;20045;-65
2022/07/26 05:27:34;;;;;;;17.05;11.63;;;;;;;22.62;84.39;94796.09;5031857;28;20049;-66
2022/07/26 05:30:02;;;;;;;17.40;12.48;;;;;;;22.76;82.56;94795.16;5014515;28;20044;-66
2022/07/26 05:32:29;;;;;;;18.27;11.38;;;;;;;22.85;82.02;94788.00;5033106;28;20041;-66
2022/07/26 05:34:56;;;;;;;14.15;12.20;;;;;;;22.98;81.53;94795.06;5032685;28;20048;-66
2022/07/26 05:37:22;;;;;;;18.02;12.57;;;;;;;23.12;81.63;94787.00;5027309;28;20043;-66
2022/07/26 05:39:49;;;;;;;26.27;11.05;;;;;;;23.23;81.14;94788.25;5032721;28;20041;-66
2022/07/26 05:42:16;;;;;;;14.88;11.05;;;;;;;23.32;80.19;94780.28;5031991;28;20044;-66
2022/07/26 05:44:43;;;;;;;17.70;11.77;;;;;;;23.54;79.12;94792.63;5034184;28;20057;-66
2022/07/26 05:47:10;;;;;;;14.15;11.65;;;;;;;23.62;78.74;94793.72;5031120;28;20072;-66
2022/07/26 05:49:37;;;;;;;14.90;11.35;;;;;;;23.77;77.67;94801.22;5030056;28;20530;-65
2022/07/26 05:52:07;;;;;;;15.25;11.55;;;;;;;23.92;78.00;94791.19;5029565;28;20666;-66
2022/07/26 05:54:34;;;;;;;13.07;9.98;;;;;;;24.01;77.01;94789.28;5032296;28;20056;-66
2022/07/26 05:57:02;;;;;;;13.48;10.77;;;;;;;24.08;76.39;94789.59;5025624;28;20450;-65
2022/07/26 05:59:32;;;;;;;18.75;11.23;;;;;;;24.23;75.24;94794.38;5023818;28;20506;-66
2022/07/26 06:01:58;;;;;;;18.30;11.13;;;;;;;24.35;74.20;94792.94;5028870;28;20343;-66
2022/07/26 06:04:26;;;;;;;12.90;11.50;;;;;;;24.36;74.19;94783.84;5031840;28;20055;-66
2022/07/26 06:06:54;;;;;;;12.73;10.05;;;;;;;24.50;74.34;94779.09;5010408;28;20510;-66
2022/07/26 06:09:23;;;;;;;20.02;9.75;;;;;;;24.64;72.58;94784.22;5032114;28;20498;-66
2022/07/26 06:11:50;;;;;;;15.32;10.15;;;;;;;24.76;74.17;94780.88;5031338;28;20041;-68
2022/07/26 06:14:18;;;;;;;15.88;11.30;;;;;;;24.91;72.38;94774.22;5030578;28;20049;-68
2022/07/26 06:16:46;;;;;;;13.05;10.60;;;;;;;24.95;72.84;94777.78;5027710;28;20041;-68
2022/07/26 06:19:14;;;;;;;13.98;9.77;;;;;;;25.06;71.43;94767.53;5015394;28;20051;-68
2022/07/26 06:21:44;;;;;;;13.75;9.73;;;;;;;25.07;70.55;94755.78;5027788;28;20169;-72
2022/07/26 06:24:12;;;;;;;14.13;11.32;;;;;;;25.32;70.69;94775.38;5030437;28;20041;-72
2022/07/26 06:26:39;;;;;;;16.63;11.00;;;;;;;25.36;69.25;94765.59;5019549;28;20403;-73
2022/07/26 06:29:06;;;;;;;13.93;10.02;;;;;;;25.50;68.87;94768.00;5009998;28;20037;-73
2022/07/26 06:31:33;;;;;;;14.13;12.05;;;;;;;25.53;68.17;94764.66;5024709;28;20519;-74
2022/07/26 06:34:00;;;;;;;13.18;9.93;;;;;;;25.61;68.36;94761.16;4991762;28;20056;-74
2022/07/26 06:36:27;;;;;;;14.13;10.13;;;;;;;25.66;67.79;94760.16;5024117;28;20514;-74
2022/07/26 06:38:57;;;;;;;11.55;9.73;;;;;;;25.87;67.91;94762.78;5008555;28;20054;-74
2022/07/26 06:41:24;;;;;;;12.05;9.65;;;;;;;26.01;66.87;94768.63;5012058;28;20052;-74
2022/07/26 06:43:51;;;;;;;10.80;9.40;;;;;;;26.04;66.39;94772.53;5026726;28;20053;-74
2022/07/26 06:46:19;;;;;;;16.83;10.23;;;;;;;26.08;66.93;94758.19;5026714;28;20049;-73
2022/07/26 06:48:50;;;;;;;12.05;9.48;;;;;;;26.37;65.68;94774.34;5020243;28;20053;-74
2022/07/26 06:51:23;;;;;;;13.60;10.90;;;;;;;26.54;64.44;94768.00;5005443;28;20125;-71
2022/07/26 06:53:50;;;;;;;11.02;9.93;;;;;;;26.56;63.88;94757.75;5021142;28;20079;-71
2022/07/26 06:56:18;;;;;;;11.90;10.38;;;;;;;26.75;62.79;94763.34;5022457;28;20037;-71
2022/07/26 06:58:46;;;;;;;16.30;10.45;;;;;;;26.87;62.40;94766.00;5022463;28;20575;-71
2022/07/26 07:01:13;;;;;;;12.48;9.63;;;;;;;26.96;62.72;94757.09;5004057;28;20045;-70
2022/07/26 07:03:59;;;;;;;13.10;9.70;;;;;;;27.12;61.61;94768.63;4989164;28;20041;-70
2022/07/26 07:06:26;;;;;;;10.52;9.30;;;;;;;27.21;60.34;94768.50;5023604;28;20613;-69
2022/07/26 07:08:53;;;;;;;11.30;10.10;;;;;;;27.27;59.36;94762.59;5028483;28;20052;-70
2022/07/26 07:11:20;;;;;;;14.20;9.27;;;;;;;27.41;60.38;94761.47;5023445;28;20079;-69
2022/07/26 07:13:48;;;;;;;21.92;10.20;;;;;;;27.54;59.36;94765.63;5024952;28;20069;-70
2022/07/26 07:16:15;;;;;;;10.48;9.35;;;;;;;27.70;58.65;94762.22;5028814;28;20047;-66
2022/07/26 07:18:42;;;;;;;14.38;9.95;;;;;;;27.73;57.42;94761.53;5025209;28;20506;-67
2022/07/26 07:21:09;;;;;;;10.18;9.10;;;;;;;27.87;57.69;94761.13;5026149;28;20055;-66
2022/07/26 07:23:35;;;;;;;17.35;10.13;;;;;;;27.97;57.75;94768.69;5023778;28;20060;-72
2022/07/26 07:26:02;;;;;;;13.18;9.68;;;;;;;28.01;56.49;94764.97;5024971;28;20446;-72
2022/07/26 07:28:32;;;;;;;14.60;10.15;;;;;;;28.12;55.00;94777.84;4986334;28;20037;-68
2022/07/26 07:31:00;;;;;;;12.02;9.63;;;;;;;28.21;54.89;94765.06;5026549;28;20140;-68
2022/07/26 07:33:29;;;;;;;15.90;10.02;;;;;;;28.36;55.35;94769.66;5022522;28;20076;-72
2022/07/26 07:36:09;;;;;;;14.02;10.00;;;;;;;28.53;53.90;94770.44;5021493;28;20045;-71
2022/07/26 07:38:36;;;;;;;11.70;10.05;;;;;;;28.53;53.23;94770.44;5003625;28;20891;-72
2022/07/26 07:41:08;;;;;;;11.15;9.75;;;;;;;28.60;54.15;94765.28;5008887;28;20099;-73
2022/07/26 07:43:35;;;;;;;10.25;9.18;;;;;;;28.81;52.92;94764.19;5023809;28;20045;-73
2022/07/26 07:46:02;;;;;;;10.50;9.30;;;;;;;29.05;52.93;94763.97;5025874;28;20061;-66
2022/07/26 07:48:29;;;;;;;11.55;9.85;;;;;;;28.94;52.55;94736.94;5022081;28;20044;-74
2022/07/26 07:50:56;;;;;;;15.98;9.48;;;;;;;29.30;52.16;94763.75;5026366;28;20091;-68
2022/07/26 07:53:24;;;;;;;10.95;9.82;;;;;;;29.28;49.34;94765.97;5027457;28;20037;-66
2022/07/26 07:55:52;;;;;;;12.60;9.45;;;;;;;28.94;49.60;94762.97;5027313;28;20136;-66
2022/07/26 07:58:21;;;;;;;11.73;9.35;;;;;;;28.85;50.03;94754.34;5026388;28;20075;-66
2022/07/26 08:00:47;;;;;;;13.30;9.95;;;;;;;29.00;49.66;94756.19;5025149;28;20080;-66
2022/07/26 08:03:15;;;;;;;11.82;9.82;;;;;;;29.20;51.38;94753.56;5024734;28;20042;-74
2022/07/26 08:05:45;;;;;;;13.73;9.50;;;;;;;29.35;48.84;94750.03;5009587;28;20060;-74
2022/07/26 08:08:16;;;;;;;12.50;10.43;;;;;;;29.62;50.07;94755.53;5025156;28;20119;-74
2022/07/26 08:10:44;;;;;;;13.13;10.15;;;;;;;29.73;47.71;94751.16;5025319;28;20068;-72
2022/07/26 08:13:19;;;;;;;16.30;9.57;;;;;;;29.93;48.13;94747.31;5022399;28;20128;-72
2022/07/26 08:15:51;;;;;;;15.82;9.00;;;;;;;30.22;45.14;94753.19;5029873;28;20042;-73
2022/07/26 08:18:20;;;;;;;10.05;8.98;;;;;;;30.31;44.34;94745.66;5013520;28;20057;-73
2022/07/26 08:20:50;;;;;;;10.77;9.38;;;;;;;30.40;46.02;94747.34;5010329;28;20045;-71
2022/07/26 08:23:19;;;;;;;12.75;10.07;;;;;;;30.44;42.99;94737.44;5023012;28;20311;-70
2022/07/26 08:25:46;;;;;;;11.73;10.23;;;;;;;30.25;43.84;94741.72;4976632;28;20403;-70
2022/07/26 08:28:25;;;;;;;11.07;9.85;;;;;;;30.03;44.56;94737.13;5013053;28;20090;-71
2022/07/26 08:31:12;;;;;;;10.85;9.73;;;;;;;30.05;46.96;94732.16;5012677;28;20033;-72
2022/07/26 08:33:39;;;;;;;10.25;9.13;;;;;;;30.34;46.20;94738.03;5028807;28;20056;-71
2022/07/26 08:36:14;;;;;;;14.90;9.43;;;;;;;30.58;44.41;94737.66;5024725;28;20041;-72
2022/07/26 08:38:41;;;;;;;15.40;9.43;;;;;;;30.82;42.26;94736.44;5010638;28;20052;-72
2022/07/26 08:41:08;;;;;;;10.82;9.65;;;;;;;30.97;41.28;94726.72;5029117;28;20133;-72
2022/07/26 08:43:35;;;;;;;10.88;9.20;;;;;;;31.23;40.30;94735.84;5008723;28;20098;-71
2022/07/26 08:46:19;;;;;;;10.68;9.20;;;;;;;31.15;38.42;94732.31;5010828;28;20056;-70
2022/07/26 08:48:51;;;;;;;11.63;9.18;;;;;;;30.86;38.41;94725.75;5027429;28;20041;-71
2022/07/26 08:51:21;;;;;;;11.52;9.05;;;;;;;30.92;38.84;94726.22;5027719;28;20178;-71
2022/07/26 08:53:49;;;;;;;10.77;8.68;;;;;;;30.42;38.12;94702.09;5028153;28;20526;-72
2022/07/26 08:56:16;;;;;;;12.88;9.13;;;;;;;30.77;38.98;94722.53;5031090;28;20132;-71
2022/07/26 08:58:44;;;;;;;10.77;9.57;;;;;;;30.96;40.78;94724.38;5006136;28;20046;-71
2022/07/26 09:01:11;;;;;;;12.43;9.80;;;;;;;30.73;40.16;94732.47;5026445;28;20041;-71
2022/07/26 09:03:40;;;;;;;10.45;9.20;;;;;;;30.63;40.59;94729.28;5027349;28;20061;-71
2022/07/26 09:06:20;;;;;;;9.65;8.60;;;;;;;30.60;40.15;94730.00;5026890;28;20069;-71
2022/07/26 09:08:51;;;;;;;10.85;9.20;;;;;;;30.60;40.38;94718.47;5027057;28;20049;-72
2022/07/26 09:11:28;;;;;;;15.88;10.25;;;;;;;30.76;39.10;94731.75;5013225;28;20061;-71
2022/07/26 09:13:58;;;;;;;14.68;8.85;;;;;;;31.16;39.34;94733.06;5028031;28;20549;-71
2022/07/26 09:16:25;;;;;;;10.57;9.48;;;;;;;31.58;37.77;94732.03;5031622;28;20533;-71
2022/07/26 09:18:53;;;;;;;10.38;8.75;;;;;;;31.73;37.32;94739.13;5027178;28;20050;-70
2022/07/26 09:21:31;;;;;;;13.13;8.32;;;;;;;31.58;37.42;94742.81;5029236;28;20061;-71
2022/07/26 09:23:59;;;;;;;9.90;8.85;;;;;;;31.30;36.13;94733.25;5025494;28;20037;-71
2022/07/26 09:26:27;;;;;;;9.50;8.30;;;;;;;31.55;35.64;94730.09;5022341;28;20073;-67
2022/07/26 09:29:07;;;;;;;9.43;8.40;;;;;;;31.59;34.73;94728.22;5027072;28;20424;-67
2022/07/26 09:31:36;;;;;;;11.35;8.35;;;;;;;31.66;34.32;94731.00;5027691;28;20061;-67
2022/07/26 09:34:05;;;;;;;10.60;7.43;;;;;;;31.73;33.34;94733.75;5028308;28;20053;-67
2022/07/26 09:36:49;;;;;;;11.43;8.45;;;;;;;31.90;30.60;94731.59;5012131;28;20048;-67
2022/07/26 09:39:16;;;;;;;12.73;8.02;;;;;;;31.89;31.50;94724.66;5031012;28;20055;-67
2022/07/26 09:42:05;;;;;;;7.93;7.13;;;;;;;31.78;29.95;94725.34;5028938;28;20041;-66
2022/07/26 09:44:54;;;;;;;13.02;7.45;;;;;;;31.92;32.94;94729.31;5028839;28;20041;-67
2022/07/26 09:47:21;;;;;;;8.80;6.72;;;;;;;32.10;29.08;94724.13;5024502;28;20060;-73
2022/07/26 09:49:48;;;;;;;14.88;7.78;;;;;;;32.34;30.05;94730.84;5031732;28;20548;-78
2022/07/26 09:52:20;;;;;;;14.05;7.60;;;;;;;32.67;30.09;94729.19;5031386;28;20518;-72
2022/07/26 09:54:48;;;;;;;12.52;8.85;;;;;;;32.96;30.53;94728.19;5025629;28;20041;-73
2022/07/26 09:57:17;;;;;;;8.30;6.82;;;;;;;33.16;28.80;94719.84;5011915;28;20530;-73
2022/07/26 09:59:45;;;;;;;7.85;6.82;;;;;;;33.30;26.36;94719.91;5010767;28;20549;-73
2022/07/26 10:02:13;;;;;;;8.98;7.38;;;;;;;33.12;26.75;94722.53;5029165;28;20064;-73
2022/07/26 10:04:41;;;;;;;8.75;6.93;;;;;;;33.05;26.57;94729.78;5030259;28;20061;-73
2022/07/26 10:07:09;;;;;;;7.65;5.93;;;;;;;33.01;24.67;94735.16;5009001;28;20049;-73
2022/07/26 10:09:46;;;;;;;6.30;5.10;;;;;;;32.82;22.21;94736.22;5030408;28;20052;-72
2022/07/26 10:12:15;;;;;;;6.60;5.93;;;;;;;32.69;23.77;94733.06;5028018;28;20076;-72
2022/07/26 10:14:44;;;;;;;13.15;6.95;;;;;;;32.63;25.45;94723.00;5023602;28;20053;-72
2022/07/26 10:17:32;;;;;;;10.07;6.15;;;;;;;33.29;24.91;94710.25;5008841;28;20057;-74
2022/07/26 10:20:04;;;;;;;11.68;7.13;;;;;;;32.82;26.26;94714.63;5020200;28;20042;-71
2022/07/26 10:22:50;;;;;;;8.40;6.97;;;;;;;32.98;25.65;94706.25;5005374;28;20061;-72
2022/07/26 10:25:17;;;;;;;;;;;;;;;32.92;26.33;94713.94;5024632;28;20100;-75
2022/07/26 10:27:46;;;;;;;8.10;6.25;;;;;;;32.62;25.43;94700.66;5022216;28;19952;-72
2022/07/26 10:30:16;;;;;;;7.32;6.32;;;;;;;32.88;23.48;94713.16;5022566;28;20560;-75
2022/07/26 10:33:02;;;;;;;7.32;6.45;;;;;;;33.27;25.26;94699.06;5005741;28;20092;-76
2022/07/26 10:35:32;;;;;;;7.10;5.90;;;;;;;33.90;22.81;94701.56;5023872;28;20052;-85
2022/07/26 10:38:05;;;;;;;13.10;7.10;;;;;;;34.39;22.48;94702.75;5020710;28;20049;-73
2022/07/26 10:40:33;;;;;;;7.57;6.30;;;;;;;34.21;23.49;94696.59;5021506;28;20034;-73
2022/07/26 10:43:13;;;;;;;8.77;5.30;;;;;;;34.21;20.23;94702.00;5022782;28;20088;-72
2022/07/26 10:46:15;;;;;;;10.77;6.50;;;;;;;34.45;19.39;94701.22;5021708;28;20216;-73
2022/07/26 10:49:03;;;;;;;6.40;5.15;;;;;;;34.73;20.05;94688.81;5026790;28;20132;-73
2022/07/26 10:52:03;;;;;;;6.25;5.65;;;;;;;34.50;20.46;94691.16;5032470;28;20068;-72
2022/07/26 10:54:31;;;;;;;8.63;5.57;;;;;;;34.28;20.33;94691.19;5010672;28;20308;-72
2022/07/26 10:56:58;;;;;;;10.68;5.55;;;;;;;34.44;20.19;94688.06;5027992;28;20037;-72
2022/07/26 10:59:31;;;;;;;6.15;5.35;;;;;;;34.60;19.61;94682.25;5026376;28;20045;-73
2022/07/26 11:02:20;;;;;;;7.60;5.68;;;;;;;35.11;20.47;94675.53;4994836;28;20045;-73
2022/07/26 11:04:48;;;;;;;8.00;5.97;;;;;;;35.33;19.78;94681.69;5007696;28;20053;-74
2022/07/26 11:07:15;;;;;;;5.35;4.75;;;;;;;35.22;19.28;94676.31;5020716;28;20052;-73
2022/07/26 11:09:42;;;;;;;10.95;4.30;;;;;;;35.16;17.39;94660.84;5022030;28;20283;-74
2022/07/26 11:12:19;;;;;;;6.05;4.95;;;;;;;35.40;17.00;94670.03;4995493;28;20045;-73
2022/07/26 11:14:46;;;;;;;5.28;4.55;;;;;;;35.70;17.28;94655.19;5010799;28;20052;-74
2022/07/26 11:17:25;;;;;;;13.45;5.78;;;;;;;35.72;18.84;94658.25;5021960;28;20056;-73
2022/07/26 11:19:53;;;;;;;7.82;6.13;;;;;;;35.82;18.84;94660.13;5025252;28;20124;-74
2022/07/26 11:22:20;;;;;;;6.97;6.28;;;;;;;36.47;18.55;94656.91;5010177;28;20038;-73
2022/07/26 11:24:48;;;;;;;7.00;5.75;;;;;;;37.11;18.88;94667.06;5023474;28;20045;-72
2022/07/26 11:27:14;;;;;;;8.57;5.43;;;;;;;37.36;17.24;94655.13;5024717;28;20053;-73
2022/07/26 11:29:41;;;;;;;6.47;5.65;;;;;;;37.76;17.46;94649.97;5006743;28;20049;-73
2022/07/26 11:32:22;;;;;;;9.20;5.75;;;;;;;38.32;17.00;94638.59;5023728;28;20038;-72